Current Conditions
Partly Cloudy
Conditions



Pressure
1022.92 (hPa) - 30.21 (inHG)
Visibility

6.2 (miles) - 10.0 (km)
Temperature
15  °C
Temperature
5  °C
Dewpoint
51  %
 Humidity
Wind Speed
14  mph
12  kts
23  km/h
6.3  m/s
Wind Direction
N
45°
E
90°
135°
S
180°
225°
W
270°
315°
 20°

North North
East
Airport Data
EGAC
George Best Belfast City Airport
Metar :EGAC 241450Z AUTO 02012KT 9999 FEW044 15/05 Q1023
Sat 24th September 15:50 pm
Raw Metar Info
Raw METAR is the most common format in the world for the transmission of observational weather data. It is highly standardized through the International Civil Aviation Organization (ICAO), which allows it to be understood throughout most of the world.
API Info
Data Provided by
https://www.checkwx.com/weather/EGAC

Aviation Weather providing METAR, TAF, AIRMET, SIGMET and OUTLOOK Weather Reports
© Info
CSS/SVG/PHP scripts were developed by weather34 for use in the weather34 template © 2015-2022

Guide Info provided by Metar-Wikipedia